createdAt,value
2018-11-28T00:00:38.633Z,73.60
2018-11-28T00:03:08.245Z,66.70
2018-11-28T00:05:38.141Z,67.00
2018-11-28T00:08:08.926Z,72.20
2018-11-28T00:10:37.751Z,77.50
2018-11-28T00:13:07.112Z,75.20
2018-11-28T00:15:35.812Z,70.00
2018-11-28T00:18:04.808Z,71.20
2018-11-28T00:20:33.720Z,73.40
2018-11-28T00:23:03.027Z,72.20
2018-11-28T00:25:32.646Z,70.70
2018-11-28T00:28:01.315Z,76.00
2018-11-28T00:30:30.063Z,74.70
2018-11-28T00:32:59.330Z,68.10
2018-11-28T00:35:28.734Z,72.20
2018-11-28T00:37:57.396Z,71.80
2018-11-28T00:40:26.707Z,72.60
2018-11-28T00:42:55.400Z,71.80
2018-11-28T00:45:25.402Z,68.90
2018-11-28T00:47:54.121Z,74.10
2018-11-28T00:50:25.211Z,72.10
2018-11-28T00:52:53.914Z,73.90
2018-11-28T00:55:22.602Z,73.60
2018-11-28T00:57:54.174Z,71.80
2018-11-28T01:00:25.273Z,73.50
2018-11-28T01:02:54.811Z,71.10
2018-11-28T01:05:25.432Z,69.60
2018-11-28T01:07:55.142Z,70.60
2018-11-28T01:10:25.435Z,74.00
2018-11-28T01:12:55.026Z,72.60
2018-11-28T01:15:24.361Z,74.30
2018-11-28T01:17:54.714Z,73.70
2018-11-28T01:20:24.386Z,74.10
2018-11-28T01:22:53.114Z,72.30
2018-11-28T01:25:22.477Z,70.50
2018-11-28T01:27:51.433Z,70.70
2018-11-28T01:30:21.279Z,72.60
2018-11-28T01:32:50.061Z,71.00
2018-11-28T01:35:19.887Z,73.90
2018-11-28T01:37:49.880Z,72.70
2018-11-28T01:40:23.073Z,71.40
2018-11-28T01:42:52.201Z,73.30
2018-11-28T01:45:21.994Z,71.40
2018-11-28T01:47:51.417Z,73.50
2018-11-28T01:50:21.001Z,77.40
2018-11-28T01:52:49.913Z,75.00
2018-11-28T01:55:19.689Z,72.00
2018-11-28T01:57:48.490Z,72.40
2018-11-28T02:00:19.393Z,75.10
2018-11-28T02:02:50.394Z,74.40
2018-11-28T02:05:19.090Z,70.60
2018-11-28T02:07:47.764Z,73.20
2018-11-28T02:10:17.058Z,74.40
2018-11-28T02:12:45.777Z,73.80
2018-11-28T02:15:18.439Z,74.40
2018-11-28T02:17:48.026Z,76.70
2018-11-28T02:20:17.552Z,76.30
2018-11-28T02:22:48.140Z,74.90
2018-11-28T02:25:17.715Z,74.10
2018-11-28T02:27:47.157Z,76.50
2018-11-28T02:30:17.902Z,76.20
2018-11-28T02:32:47.273Z,76.70
2018-11-28T02:35:16.540Z,76.00
2018-11-28T02:37:45.585Z,75.80
2018-11-28T02:40:15.354Z,74.90
2018-11-28T02:42:44.408Z,74.60
2018-11-28T02:45:14.478Z,74.60
2018-11-28T02:47:43.198Z,71.50
2018-11-28T02:50:11.963Z,75.40
2018-11-28T02:52:41.921Z,73.60
2018-11-28T02:55:12.507Z,76.40
2018-11-28T02:57:42.478Z,73.00
2018-11-28T03:00:22.831Z,75.00
2018-11-28T03:02:52.473Z,72.10
2018-11-28T03:05:21.443Z,75.30
2018-11-28T03:07:52.435Z,74.10
2018-11-28T03:10:22.287Z,76.50
2018-11-28T03:12:51.649Z,73.30
2018-11-28T03:15:33.262Z,72.40
2018-11-28T03:18:02.877Z,76.80
2018-11-28T03:20:33.350Z,75.00
2018-11-28T03:23:03.355Z,74.70
2018-11-28T03:25:32.058Z,74.00
2018-11-28T03:28:00.788Z,75.00
2018-11-28T03:30:29.513Z,76.00
2018-11-28T03:33:00.209Z,74.50
2018-11-28T03:35:29.664Z,71.80
2018-11-28T03:37:58.893Z,72.00
2018-11-28T03:40:28.429Z,74.50
2018-11-28T03:42:57.710Z,73.10
2018-11-28T03:45:26.399Z,72.90
2018-11-28T03:47:56.037Z,72.40
2018-11-28T03:50:25.219Z,75.50
2018-11-28T03:52:55.140Z,75.20
2018-11-28T03:55:25.118Z,77.20
2018-11-28T03:57:53.850Z,75.40
2018-11-28T04:00:23.267Z,75.20
2018-11-28T04:02:51.989Z,75.50
2018-11-28T04:05:21.736Z,74.90
2018-11-28T04:07:50.426Z,75.20
2018-11-28T04:10:19.406Z,72.30
2018-11-28T04:12:48.842Z,75.70
2018-11-28T04:15:19.611Z,72.30
2018-11-28T04:17:49.138Z,75.50
2018-11-28T04:20:19.043Z,75.10
2018-11-28T04:22:47.767Z,76.60
2018-11-28T04:25:18.975Z,75.90
2018-11-28T04:27:47.721Z,77.60
2018-11-28T04:30:18.656Z,74.80
2018-11-28T04:32:48.201Z,74.40
2018-11-28T04:35:16.963Z,75.20
2018-11-28T04:37:46.245Z,75.70
2018-11-28T04:40:16.835Z,76.70
2018-11-28T04:42:46.545Z,76.20
2018-11-28T04:45:22.672Z,75.80
2018-11-28T04:47:52.269Z,75.80
2018-11-28T04:50:20.934Z,75.70
2018-11-28T04:52:49.650Z,74.20
2018-11-28T04:55:19.270Z,73.40
2018-11-28T04:57:48.406Z,74.10
2018-11-28T05:00:23.243Z,74.60
2018-11-28T05:02:52.515Z,76.70
2018-11-28T05:05:22.037Z,75.80
2018-11-28T05:07:51.551Z,77.10
2018-11-28T05:10:26.212Z,73.90
2018-11-28T05:12:56.114Z,74.10
2018-11-28T05:15:30.200Z,76.10
2018-11-28T05:18:00.183Z,75.00
2018-11-28T05:20:29.990Z,75.80
2018-11-28T05:22:58.722Z,75.70
2018-11-28T05:25:28.596Z,76.90
2018-11-28T05:27:58.464Z,76.50
2018-11-28T05:30:29.051Z,73.30
2018-11-28T05:32:58.770Z,75.20
2018-11-28T05:35:32.944Z,76.60
2018-11-28T05:38:02.767Z,77.30
2018-11-28T05:40:31.429Z,77.00
2018-11-28T05:43:01.352Z,75.20
2018-11-28T05:45:30.976Z,75.50
2018-11-28T05:48:00.354Z,76.70
2018-11-28T05:50:30.564Z,76.90
2018-11-28T05:52:59.225Z,76.50
2018-11-28T05:55:28.501Z,78.10
2018-11-28T05:57:58.517Z,76.90
2018-11-28T06:00:33.414Z,76.70
2018-11-28T06:03:03.546Z,74.80
2018-11-28T06:05:33.401Z,76.80
2018-11-28T06:08:01.573Z,76.70
2018-11-28T06:10:30.974Z,76.30
2018-11-28T06:13:00.277Z,76.60
2018-11-28T06:15:30.085Z,76.20
2018-11-28T06:17:59.391Z,76.10
2018-11-28T06:20:28.704Z,76.70
2018-11-28T06:22:58.929Z,76.40
2018-11-28T06:25:29.481Z,77.80
2018-11-28T06:27:58.189Z,77.60
2018-11-28T06:30:27.057Z,76.60
2018-11-28T06:32:56.398Z,77.70
2018-11-28T06:35:25.140Z,78.40
2018-11-28T06:37:54.205Z,77.10
2018-11-28T06:40:24.470Z,76.20
2018-11-28T06:42:53.108Z,75.80
2018-11-28T06:45:23.265Z,75.20
2018-11-28T06:47:52.557Z,76.90
2018-11-28T06:50:22.789Z,76.40
2018-11-28T06:52:52.466Z,77.00
2018-11-28T06:55:22.089Z,76.40
2018-11-28T06:57:51.286Z,76.80
2018-11-28T07:00:22.026Z,75.90
2018-11-28T07:02:51.741Z,75.80
2018-11-28T07:05:20.895Z,77.00
2018-11-28T07:07:49.881Z,77.30
2018-11-28T07:10:19.675Z,77.60
2018-11-28T07:12:48.352Z,77.60
2018-11-28T07:15:24.095Z,77.90
2018-11-28T07:17:52.785Z,76.10
2018-11-28T07:20:21.489Z,75.60
2018-11-28T07:22:50.130Z,74.10
2018-11-28T07:25:19.345Z,76.10
2018-11-28T07:27:49.084Z,76.60
2018-11-28T07:30:19.997Z,76.30
2018-11-28T07:32:50.278Z,76.40
2018-11-28T07:35:18.977Z,77.00
2018-11-28T07:37:47.661Z,77.20
2018-11-28T07:40:20.759Z,76.20
2018-11-28T07:42:59.397Z,77.10
2018-11-28T07:45:28.081Z,77.30
2018-11-28T07:47:57.302Z,77.30
2018-11-28T07:50:26.701Z,77.40
2018-11-28T07:52:55.373Z,77.20
2018-11-28T07:55:24.053Z,76.30
2018-11-28T07:57:53.305Z,76.30
2018-11-28T08:00:23.843Z,75.50
2018-11-28T08:02:53.854Z,76.00
2018-11-28T08:05:23.770Z,77.00
2018-11-28T08:07:53.645Z,77.50
2018-11-28T08:10:24.074Z,76.00
2018-11-28T08:12:55.117Z,76.30
2018-11-28T08:15:24.845Z,75.80
2018-11-28T08:17:54.203Z,75.70
2018-11-28T08:20:24.764Z,75.70
2018-11-28T08:22:55.086Z,76.00
2018-11-28T08:25:27.808Z,75.10
2018-11-28T08:27:52.577Z,76.20
2018-11-28T08:30:24.604Z,77.10
2018-11-28T08:32:54.598Z,77.00
2018-11-28T08:35:23.966Z,75.20
2018-11-28T08:37:53.303Z,76.40
2018-11-28T08:40:25.761Z,75.80
2018-11-28T08:42:55.691Z,75.70
2018-11-28T08:45:25.203Z,75.10
2018-11-28T08:47:57.054Z,75.60
2018-11-28T08:50:30.241Z,76.40
2018-11-28T08:52:59.594Z,76.00
2018-11-28T08:55:28.490Z,76.30
2018-11-28T08:57:57.754Z,76.30
2018-11-28T09:00:27.735Z,74.90
2018-11-28T09:02:57.478Z,74.00
2018-11-28T09:05:26.914Z,75.50
2018-11-28T09:07:56.094Z,75.40
2018-11-28T09:10:24.851Z,76.00
2018-11-28T09:12:54.284Z,76.60
2018-11-28T09:15:25.000Z,76.30
2018-11-28T09:17:54.977Z,76.00
2018-11-28T09:20:23.698Z,76.10
2018-11-28T09:22:52.966Z,75.20
2018-11-28T09:25:21.979Z,74.70
2018-11-28T09:27:53.981Z,74.90
2018-11-28T09:30:23.801Z,75.70
2018-11-28T09:32:54.330Z,75.70
2018-11-28T09:35:25.036Z,75.30
2018-11-28T09:37:54.905Z,76.50
2018-11-28T09:40:25.561Z,75.60
2018-11-28T09:42:55.405Z,76.10
2018-11-28T09:45:24.090Z,75.80
2018-11-28T09:47:53.338Z,76.20
2018-11-28T09:50:24.075Z,75.30
2018-11-28T09:52:53.264Z,74.30
2018-11-28T09:55:27.629Z,75.10
2018-11-28T09:57:57.047Z,74.20
2018-11-28T10:00:27.373Z,74.10
2018-11-28T10:02:58.310Z,75.50
2018-11-28T10:05:28.696Z,75.80
2018-11-28T10:07:57.958Z,75.20
2018-11-28T10:10:27.333Z,73.50
2018-11-28T10:12:56.285Z,73.80
2018-11-28T10:15:26.022Z,74.60
2018-11-28T10:17:54.733Z,73.80
2018-11-28T10:20:23.377Z,74.70
2018-11-28T10:22:53.022Z,73.70
2018-11-28T10:25:24.826Z,73.90
2018-11-28T10:27:56.813Z,74.00
2018-11-28T10:30:26.795Z,73.80
2018-11-28T10:32:56.396Z,75.00
2018-11-28T10:35:25.142Z,74.40
2018-11-28T10:37:53.889Z,74.60
2018-11-28T10:40:24.437Z,73.80
2018-11-28T10:42:56.080Z,73.90
2018-11-28T10:45:25.929Z,73.80
2018-11-28T10:47:55.852Z,74.00
2018-11-28T10:50:25.340Z,74.00
2018-11-28T10:52:54.730Z,74.30
2018-11-28T10:55:24.892Z,73.60
2018-11-28T10:57:53.645Z,73.90
2018-11-28T11:00:31.738Z,73.10
2018-11-28T11:03:05.817Z,73.20
2018-11-28T11:05:39.842Z,72.30
2018-11-28T11:08:14.740Z,72.10
2018-11-28T11:10:48.790Z,71.90
2018-11-28T11:13:22.691Z,73.30
2018-11-28T11:15:55.459Z,73.20
2018-11-28T11:18:24.689Z,73.50
2018-11-28T11:20:53.473Z,72.40
2018-11-28T11:23:22.294Z,72.70
2018-11-28T11:25:51.679Z,73.50
2018-11-28T11:28:21.205Z,74.40
2018-11-28T11:30:51.617Z,72.70
2018-11-28T11:33:20.484Z,72.70
2018-11-28T11:35:49.242Z,72.30
2018-11-28T11:38:18.779Z,72.30
2018-11-28T11:40:47.510Z,71.70
2018-11-28T11:43:16.753Z,71.90
2018-11-28T11:45:45.944Z,72.40
2018-11-28T11:48:14.611Z,72.00
2018-11-28T11:50:43.818Z,72.60
2018-11-28T11:53:12.688Z,71.20
2018-11-28T11:55:41.470Z,72.40
2018-11-28T11:58:10.786Z,72.20
2018-11-28T12:00:41.209Z,72.30
2018-11-28T12:03:13.093Z,71.90
2018-11-28T12:05:49.462Z,72.50
2018-11-28T12:08:18.190Z,72.40
2018-11-28T12:10:48.300Z,72.20
2018-11-28T12:13:17.027Z,72.90
2018-11-28T12:15:46.269Z,72.20
2018-11-28T12:18:15.085Z,71.70
2018-11-28T12:20:52.661Z,71.70
2018-11-28T12:23:21.414Z,71.90
2018-11-28T12:25:51.513Z,72.30
2018-11-28T12:28:21.671Z,71.50
2018-11-28T12:30:51.000Z,71.80
2018-11-28T12:33:21.708Z,71.90
2018-11-28T12:35:51.757Z,72.20
2018-11-28T12:38:21.227Z,71.90
2018-11-28T12:40:50.817Z,71.90
2018-11-28T12:43:20.227Z,70.40
2018-11-28T12:45:50.175Z,71.40
2018-11-28T12:48:19.690Z,71.80
2018-11-28T12:50:48.416Z,71.10
2018-11-28T12:53:17.123Z,72.00
2018-11-28T12:55:45.781Z,71.80
2018-11-28T12:58:17.475Z,72.20
2018-11-28T13:00:46.322Z,71.50
2018-11-28T13:03:16.445Z,70.90
2018-11-28T13:05:45.663Z,71.30
2018-11-28T13:08:14.947Z,72.00
2018-11-28T13:10:43.942Z,71.50
2018-11-28T13:13:13.489Z,71.30
2018-11-28T13:15:44.186Z,71.40
2018-11-28T13:18:12.918Z,71.90
2018-11-28T13:20:43.252Z,71.20
2018-11-28T13:23:13.346Z,71.90
2018-11-28T13:25:42.806Z,71.60
2018-11-28T13:28:12.161Z,71.00
2018-11-28T13:30:41.024Z,70.80
2018-11-28T13:33:11.287Z,71.50
2018-11-28T13:35:39.972Z,71.50
2018-11-28T13:38:11.063Z,71.80
2018-11-28T13:40:40.711Z,71.60
2018-11-28T13:43:09.815Z,71.10
2018-11-28T13:45:41.035Z,71.00
2018-11-28T13:48:10.565Z,71.00
2018-11-28T13:50:40.022Z,71.20
2018-11-28T13:53:11.601Z,72.00
2018-11-28T13:56:30.039Z,70.80
2018-11-28T13:58:19.798Z,71.60
2018-11-28T14:00:49.165Z,72.10
2018-11-28T14:03:18.734Z,72.00
2018-11-28T14:05:48.926Z,72.40
2018-11-28T14:08:17.767Z,71.20
2018-11-28T14:10:46.541Z,71.60
2018-11-28T14:13:16.702Z,70.80
2018-11-28T14:18:38.238Z,71.90
2018-11-28T14:21:08.101Z,71.30
2018-11-28T14:23:37.542Z,71.70
2018-11-28T14:26:07.213Z,72.10
2018-11-28T14:28:37.766Z,71.10
2018-11-28T14:31:07.673Z,71.20
2018-11-28T14:33:37.251Z,72.20
2018-11-28T14:36:06.775Z,72.20
2018-11-28T14:38:35.587Z,71.40
2018-11-28T14:41:05.279Z,71.20
2018-11-28T14:43:35.414Z,71.60
2018-11-28T14:46:04.767Z,70.10
2018-11-28T14:48:35.154Z,70.80
2018-11-28T14:51:05.129Z,71.30
2018-11-28T14:53:35.386Z,72.00
2018-11-28T14:56:05.590Z,71.80
2018-11-28T14:58:34.275Z,72.30
2018-11-28T15:01:03.631Z,71.50
2018-11-28T15:03:32.344Z,72.10
2018-11-28T15:06:09.640Z,70.20
2018-11-28T15:08:38.859Z,71.40
2018-11-28T15:11:09.824Z,71.50
2018-11-28T15:13:39.344Z,72.70
2018-11-28T15:16:08.346Z,72.50
2018-11-28T15:18:37.227Z,72.70
2018-11-28T15:21:07.210Z,73.20
2018-11-28T15:23:37.172Z,74.80
2018-11-28T15:26:06.744Z,76.30
2018-11-28T15:28:35.455Z,77.40
2018-11-28T15:31:05.014Z,78.90
2018-11-28T15:33:33.730Z,79.80
2018-11-28T15:36:02.465Z,79.40
2018-11-28T15:38:33.270Z,80.30
2018-11-28T15:41:02.553Z,81.60
2018-11-28T15:43:31.193Z,82.40
2018-11-28T15:45:59.910Z,83.70
2018-11-28T15:48:28.593Z,86.00
2018-11-28T15:50:57.669Z,87.50
2018-11-28T15:53:27.603Z,87.30
2018-11-28T15:55:56.367Z,86.70
2018-11-28T15:58:25.792Z,89.20
2018-11-28T16:00:54.518Z,88.90
2018-11-28T16:03:24.309Z,88.50
2018-11-28T16:05:53.082Z,88.70
2018-11-28T16:08:23.423Z,87.40
2018-11-28T16:10:52.718Z,88.70
2018-11-28T16:13:21.942Z,87.90
2018-11-28T16:15:56.842Z,89.40
2018-11-28T16:18:25.620Z,89.10
2018-11-28T16:20:55.253Z,88.60
2018-11-28T16:23:24.007Z,89.50
2018-11-28T16:25:52.705Z,88.90
2018-11-28T16:28:21.907Z,88.30
2018-11-28T16:30:51.359Z,89.70
2018-11-28T16:33:20.138Z,89.00
2018-11-28T16:35:48.829Z,90.00
2018-11-28T16:38:17.573Z,90.00
2018-11-28T16:40:46.238Z,90.00
2018-11-28T16:43:15.021Z,89.90
2018-11-28T16:45:44.973Z,90.40
2018-11-28T16:48:14.822Z,90.30
2018-11-28T16:50:44.222Z,90.50
2018-11-28T16:53:14.037Z,90.70
2018-11-28T16:55:42.797Z,90.50
2018-11-28T16:58:11.481Z,91.00
2018-11-28T17:00:43.173Z,91.00
2018-11-28T17:03:13.024Z,90.90
2018-11-28T17:05:42.349Z,91.20
2018-11-28T17:08:11.222Z,91.10
2018-11-28T17:10:41.138Z,91.20
2018-11-28T17:13:10.049Z,91.00
2018-11-28T17:15:39.989Z,91.00
2018-11-28T17:18:10.289Z,91.20
2018-11-28T17:20:41.578Z,90.50
2018-11-28T17:23:10.962Z,91.30
2018-11-28T17:25:40.135Z,91.30
2018-11-28T17:28:10.929Z,91.90
2018-11-28T17:30:40.784Z,91.90
2018-11-28T17:33:11.431Z,92.30
2018-11-28T17:35:42.544Z,92.50
2018-11-28T17:38:12.339Z,92.70
2018-11-28T17:40:42.610Z,92.90
2018-11-28T17:43:12.529Z,92.70
2018-11-28T17:45:42.665Z,93.20
2018-11-28T17:48:13.633Z,93.10
2018-11-28T17:50:44.421Z,93.00
2018-11-28T17:53:14.325Z,92.90
2018-11-28T17:55:58.324Z,93.30
2018-11-28T17:58:28.959Z,92.50
2018-11-28T18:00:58.270Z,92.40
2018-11-28T18:03:29.042Z,92.30
2018-11-28T18:06:00.482Z,92.70
2018-11-28T18:08:30.934Z,92.40
2018-11-28T18:11:18.898Z,91.70
2018-11-28T18:13:49.427Z,91.90
2018-11-28T18:16:18.729Z,92.60
2018-11-28T18:18:48.021Z,92.50
2018-11-28T18:21:17.523Z,92.50
2018-11-28T18:23:47.716Z,92.30
2018-11-28T18:26:18.165Z,92.10
2018-11-28T18:28:48.513Z,92.20
2018-11-28T18:31:18.087Z,92.60
2018-11-28T18:33:47.560Z,92.20
2018-11-28T18:36:18.658Z,92.30
2018-11-28T18:38:48.551Z,92.30
2018-11-28T18:41:17.902Z,91.30
2018-11-28T18:43:48.193Z,91.40
2018-11-28T18:46:18.171Z,92.30
2018-11-28T18:48:46.845Z,92.40
2018-11-28T18:51:16.150Z,91.90
2018-11-28T18:53:49.390Z,91.70
2018-11-28T18:56:14.502Z,91.50
2018-11-28T18:58:43.156Z,91.80
2018-11-28T19:01:12.750Z,92.10
2018-11-28T19:03:41.565Z,91.60
2018-11-28T19:06:11.013Z,91.60
2018-11-28T19:08:39.745Z,91.90
2018-11-28T19:11:08.486Z,91.60
2018-11-28T19:13:38.444Z,91.60
2018-11-28T19:16:07.394Z,91.60
2018-11-28T19:18:35.901Z,91.70
2018-11-28T19:21:04.645Z,91.40
2018-11-28T19:23:33.342Z,91.10
2018-11-28T19:26:02.600Z,91.00
2018-11-28T19:28:35.226Z,91.00
2018-11-28T19:31:04.718Z,91.10
2018-11-28T19:33:34.267Z,91.20
2018-11-28T19:36:03.039Z,91.00
2018-11-28T19:38:31.770Z,91.20
2018-11-28T19:41:02.586Z,91.00
2018-11-28T19:43:31.321Z,90.70
2018-11-28T19:46:00.022Z,90.90
2018-11-28T19:48:28.707Z,90.70
2018-11-28T19:50:57.442Z,90.80
2018-11-28T19:53:28.826Z,90.70
2018-11-28T19:55:57.518Z,91.00
2018-11-28T19:58:26.205Z,90.70
2018-11-28T20:00:54.846Z,90.60
2018-11-28T20:03:24.315Z,90.90
2018-11-28T20:05:53.898Z,90.80
2018-11-28T20:08:22.591Z,90.50
2018-11-28T20:10:51.269Z,89.80
2018-11-28T20:13:20.808Z,90.10
2018-11-28T20:15:50.806Z,90.10
2018-11-28T20:18:19.518Z,90.20
2018-11-28T20:20:48.218Z,90.40
2018-11-28T20:23:17.009Z,90.60
2018-11-28T20:25:45.861Z,90.30
2018-11-28T20:28:15.323Z,90.30
2018-11-28T20:30:45.173Z,90.60
2018-11-28T20:33:15.128Z,90.40
2018-11-28T20:35:44.917Z,90.40
2018-11-28T20:38:32.161Z,90.10
2018-11-28T20:41:01.474Z,90.50
2018-11-28T20:43:30.184Z,90.40
2018-11-28T20:45:58.917Z,89.90
2018-11-28T20:48:27.620Z,88.80
2018-11-28T20:50:56.348Z,88.60
2018-11-28T20:53:25.648Z,89.30
2018-11-28T20:55:54.356Z,90.20
2018-11-28T20:58:23.072Z,89.40
2018-11-28T21:00:51.818Z,89.20
2018-11-28T21:03:20.557Z,90.00
2018-11-28T21:05:49.249Z,88.70
2018-11-28T21:08:17.944Z,90.00
2018-11-28T21:10:46.678Z,89.80
2018-11-28T21:13:15.362Z,89.60
2018-11-28T21:15:45.340Z,88.80
2018-11-28T21:18:14.355Z,89.50
2018-11-28T21:20:44.531Z,89.40
2018-11-28T21:23:14.592Z,90.00
2018-11-28T21:25:43.318Z,90.10
2018-11-28T21:28:12.029Z,89.70
2018-11-28T21:30:41.301Z,90.00
2018-11-28T21:33:10.961Z,90.00
2018-11-28T21:35:41.349Z,90.00
2018-11-28T21:38:10.164Z,90.00
2018-11-28T21:40:38.894Z,89.70
2018-11-28T21:43:07.620Z,89.60
2018-11-28T21:45:36.901Z,89.30
2018-11-28T21:48:05.982Z,88.80
2018-11-28T21:50:36.265Z,89.30
2018-11-28T21:53:07.301Z,89.00
2018-11-28T21:55:36.655Z,88.80
2018-11-28T21:58:05.743Z,89.40
2018-11-28T22:00:35.803Z,88.90
2018-11-28T22:03:05.565Z,89.40
2018-11-28T22:05:34.854Z,89.10
2018-11-28T22:08:03.639Z,87.90
2018-11-28T22:10:32.521Z,88.30
2018-11-28T22:13:03.200Z,88.80
2018-11-28T22:15:33.481Z,87.70
2018-11-28T22:18:03.012Z,88.30
2018-11-28T22:20:31.706Z,88.20
2018-11-28T22:23:02.745Z,88.70
2018-11-28T22:25:32.946Z,89.20
2018-11-28T22:28:02.201Z,89.10
2018-11-28T22:30:31.989Z,89.20
2018-11-28T22:33:01.393Z,89.00
2018-11-28T22:35:31.261Z,88.10
2018-11-28T22:38:00.668Z,89.30
2018-11-28T22:40:30.668Z,88.90
2018-11-28T22:43:00.007Z,88.80
2018-11-28T22:45:30.105Z,88.90
2018-11-28T22:47:59.514Z,89.40
2018-11-28T22:50:28.797Z,88.90
2018-11-28T22:52:57.465Z,88.50
2018-11-28T22:55:26.130Z,88.40
2018-11-28T22:57:55.316Z,88.20
2018-11-28T23:00:30.018Z,88.10
2018-11-28T23:03:01.367Z,88.00
2018-11-28T23:05:41.174Z,87.90
2018-11-28T23:08:10.675Z,88.10
2018-11-28T23:10:39.616Z,88.80
2018-11-28T23:13:09.388Z,89.00
2018-11-28T23:15:38.093Z,89.00
2018-11-28T23:18:07.717Z,89.40
2018-11-28T23:20:36.668Z,88.90
2018-11-28T23:23:06.522Z,88.90
2018-11-28T23:25:35.232Z,88.90
2018-11-28T23:28:03.916Z,89.40
2018-11-28T23:30:32.677Z,88.20
2018-11-28T23:33:01.494Z,88.50
2018-11-28T23:35:30.386Z,89.10
2018-11-28T23:37:59.764Z,89.10
2018-11-28T23:40:28.478Z,88.90
2018-11-28T23:42:57.380Z,87.70
2018-11-28T23:45:26.842Z,88.20
2018-11-28T23:47:55.526Z,88.50
2018-11-28T23:50:25.199Z,88.30
2018-11-28T23:52:55.736Z,88.30
2018-11-28T23:55:26.437Z,88.60
2018-11-28T23:57:55.312Z,88.20
